Thunder radar more information blitzortung!


Radar de pluja more information rain snow radar


Visita la nostra xarxa de llocs de meteo:

Template documentation
and downloads

And another site



No particular awareness of the weather is required.    There are no Weather-warnings

Pagina Historial Weather Underground text

Diari Resum Juliol 6, 2017 Unitats:  Tant    Imperial   Mètric
« Previous Dia
SegĂźent Dia »
Diari Setmana Mensual Anual Personalitzada
  Maxima: Minima: Media:
Temperatura: 93.7 °F /  34.3 °C 65.5 °F /  18.6 °C 80.6 °F /  27 °C
Punt de rosada: 64.4 °F /  18.0 °C 53.4 °F /  11.9 °C 59.9 °F /  15.5 °C
Humitat: 77 % 27 % 52 %
Wind Speed: 12.7 mph /  20.4 km/h - 4.3 mph /  6.9 km/h
RĂ fegues de vent: 12.7 mph /  20.4 km/h - -
Vent:- - ESE
Pression baro: 30.1 in /  1017.8 hPa 30 in /  1014.8 hPa -
Precipitacions: 0 in /  0.0 mm    
Historical Graphs
 
 
Dades de taula per Juliol 6, 2017
Temps Temperatura Punt de rosada Pression baro Vent Wind Speed RĂ fegues de vent Humitat Rainfall Rate (Hourly)
00:01 70.5 °F /  21.4 °C 61.9 °F /  16.6 °C 30 in /  1015.8 hPa SW 2 mph /  3.2 km/h 2 mph /  3.2 km/h 74 % 0 in /  0.0 mm
00:05 66.4 °F /  19.1 °C 58.3 °F /  14.6 °C 30 in /  1014.8 hPa NE 2 mph /  3.2 km/h 4 mph /  6.4 km/h 75 % 0 in /  0.0 mm
00:06 70.2 °F /  21.2 °C 61.5 °F /  16.4 °C 30 in /  1015.8 hPa Calm     74 % 0 in /  0.0 mm
00:11 70.2 °F /  21.2 °C 61.9 °F /  16.6 °C 30 in /  1015.8 hPa NE 2 mph /  3.2 km/h   75 % 0 in /  0.0 mm
00:15 66.6 °F /  19.2 °C 57.9 °F /  14.4 °C 30 in /  1014.8 hPa Calm   2 mph /  3.2 km/h 74 % 0 in /  0.0 mm
00:25 65.7 °F /  18.7 °C 57.9 °F /  14.4 °C 30 in /  1014.8 hPa SSW 1 mph /  1.6 km/h 4 mph /  6.4 km/h 76 % 0 in /  0.0 mm
00:35 65.5 °F /  18.6 °C 57.7 °F /  14.3 °C 30 in /  1015.8 hPa SW 3 mph /  4.8 km/h 3 mph /  4.8 km/h 76 % 0 in /  0.0 mm
00:45 65.5 °F /  18.6 °C 58.1 °F /  14.5 °C 30 in /  1015.8 hPa Calm   3 mph /  4.8 km/h 77 % 0 in /  0.0 mm
00:55 65.8 °F /  18.8 °C 58.5 °F /  14.7 °C 30 in /  1015.8 hPa NW 2 mph /  3.2 km/h 3 mph /  4.8 km/h 77 % 0 in /  0.0 mm
01:05 66 °F /  18.9 °C 58.3 °F /  14.6 °C 30 in /  1014.8 hPa Calm   2 mph /  3.2 km/h 76 % 0 in /  0.0 mm
01:15 66 °F /  18.9 °C 58.6 °F /  14.8 °C 30 in /  1014.8 hPa North 1 mph /  1.6 km/h 3 mph /  4.8 km/h 77 % 0 in /  0.0 mm
01:25 65.7 °F /  18.7 °C 58.3 °F /  14.6 °C 30 in /  1014.8 hPa WNW 1 mph /  1.6 km/h 2 mph /  3.2 km/h 77 % 0 in /  0.0 mm
01:35 65.8 °F /  18.8 °C 58.5 °F /  14.7 °C 30 in /  1014.8 hPa SSW 2 mph /  3.2 km/h 2 mph /  3.2 km/h 77 % 0 in /  0.0 mm
01:45 66.2 °F /  19.0 °C 56.8 °F /  13.8 °C 30 in /  1014.8 hPa NE 3 mph /  4.8 km/h 4 mph /  6.4 km/h 72 % 0 in /  0.0 mm
01:55 66 °F /  18.9 °C 57.9 °F /  14.4 °C 30 in /  1014.8 hPa NNE 3 mph /  4.8 km/h 4 mph /  6.4 km/h 75 % 0 in /  0.0 mm
02:05 66 °F /  18.9 °C 57.9 °F /  14.4 °C 30 in /  1014.8 hPa West 1 mph /  1.6 km/h 2 mph /  3.2 km/h 75 % 0 in /  0.0 mm
02:15 65.8 °F /  18.8 °C 57.7 °F /  14.3 °C 30 in /  1015.8 hPa SW 2 mph /  3.2 km/h 4 mph /  6.4 km/h 75 % 0 in /  0.0 mm
02:25 66.4 °F /  19.1 °C 58.3 °F /  14.6 °C 30 in /  1015.8 hPa SW 2 mph /  3.2 km/h 3 mph /  4.8 km/h 75 % 0 in /  0.0 mm
02:35 66.7 °F /  19.3 °C 58.6 °F /  14.8 °C 30 in /  1015.8 hPa Calm   2 mph /  3.2 km/h 75 % 0 in /  0.0 mm
02:45 67.1 °F /  19.5 °C 58.5 °F /  14.7 °C 30 in /  1015.8 hPa NNE 1 mph /  1.6 km/h 2 mph /  3.2 km/h 74 % 0 in /  0.0 mm
02:55 67.3 °F /  19.6 °C 58.3 °F /  14.6 °C 30 in /  1015.8 hPa WSW 1 mph /  1.6 km/h 1 mph /  1.6 km/h 73 % 0 in /  0.0 mm
03:05 67.6 °F /  19.8 °C 59.2 °F /  15.1 °C 30 in /  1015.8 hPa SW 1 mph /  1.6 km/h 2 mph /  3.2 km/h 74 % 0 in /  0.0 mm
03:15 68.2 °F /  20.1 °C 58.5 °F /  14.7 °C 30 in /  1015.8 hPa WSW 1 mph /  1.6 km/h 1 mph /  1.6 km/h 71 % 0 in /  0.0 mm
03:25 68.9 °F /  20.5 °C 59.2 °F /  15.1 °C 30 in /  1015.8 hPa West 2 mph /  3.2 km/h 2 mph /  3.2 km/h 71 % 0 in /  0.0 mm
03:35 69.6 °F /  20.9 °C 59.4 °F /  15.2 °C 30 in /  1016.8 hPa SW 1 mph /  1.6 km/h 2 mph /  3.2 km/h 70 % 0 in /  0.0 mm
03:45 70.9 °F /  21.6 °C 60.3 °F /  15.7 °C 30 in /  1016.8 hPa SW 1 mph /  1.6 km/h 2 mph /  3.2 km/h 69 % 0 in /  0.0 mm
03:55 72.1 °F /  22.3 °C 60.3 °F /  15.7 °C 30 in /  1016.8 hPa SW 2 mph /  3.2 km/h 2 mph /  3.2 km/h 66 % 0 in /  0.0 mm
04:05 73.4 °F /  23.0 °C 60.4 °F /  15.8 °C 30 in /  1016.8 hPa Calm   3 mph /  4.8 km/h 64 % 0 in /  0.0 mm
04:15 74.3 °F /  23.5 °C 61 °F /  16.1 °C 30.1 in /  1017.8 hPa Calm   2 mph /  3.2 km/h 63 % 0 in /  0.0 mm
04:25 75.9 °F /  24.4 °C 61.5 °F /  16.4 °C 30.1 in /  1017.8 hPa SW 1 mph /  1.6 km/h 3 mph /  4.8 km/h 61 % 0 in /  0.0 mm
04:35 76.3 °F /  24.6 °C 61.3 °F /  16.3 °C 30.1 in /  1017.8 hPa SW 1 mph /  1.6 km/h 4 mph /  6.4 km/h 60 % 0 in /  0.0 mm
04:45 77.7 °F /  25.4 °C 61.3 °F /  16.3 °C 30.1 in /  1017.8 hPa SW 1 mph /  1.6 km/h 2 mph /  3.2 km/h 57 % 0 in /  0.0 mm
04:55 79.5 °F /  26.4 °C 61.3 °F /  16.3 °C 30.1 in /  1017.8 hPa South 2 mph /  3.2 km/h 4 mph /  6.4 km/h 54 % 0 in /  0.0 mm
05:05 79.3 °F /  26.3 °C 60.6 °F /  15.9 °C 30.1 in /  1017.8 hPa SE 2 mph /  3.2 km/h 4 mph /  6.4 km/h 53 % 0 in /  0.0 mm
05:15 79.9 °F /  26.6 °C 61.2 °F /  16.2 °C 30.1 in /  1017.8 hPa SSE 1 mph /  1.6 km/h 2 mph /  3.2 km/h 53 % 0 in /  0.0 mm
05:25 81.5 °F /  27.5 °C 61.2 °F /  16.2 °C 30.1 in /  1017.8 hPa Calm   2 mph /  3.2 km/h 50 % 0 in /  0.0 mm
05:35 81.5 °F /  27.5 °C 59.4 °F /  15.2 °C 30.1 in /  1017.8 hPa SSE 2 mph /  3.2 km/h 4 mph /  6.4 km/h 47 % 0 in /  0.0 mm
05:40 81.7 °F /  27.6 °C 59.5 °F /  15.3 °C 30.1 in /  1017.8 hPa SSE 1 mph /  1.6 km/h 3 mph /  4.8 km/h 47 % 0 in /  0.0 mm
10:40 82.2 °F /  27.9 °C 60.6 °F /  15.9 °C 30.1 in /  1017.8 hPa SE 2.3 mph /  3.7 km/h   48 % 0 in /  0.0 mm
10:45 83.3 °F /  28.5 °C 61 °F /  16.1 °C 30 in /  1016.8 hPa East 3.5 mph /  5.6 km/h 3.5 mph /  5.6 km/h 47 % 0 in /  0.0 mm
10:50 82.9 °F /  28.3 °C 60.6 °F /  15.9 °C 30 in /  1016.8 hPa East 3.5 mph /  5.6 km/h 3.5 mph /  5.6 km/h 47 % 0 in /  0.0 mm
10:56 83.1 °F /  28.4 °C 61.3 °F /  16.3 °C 30.1 in /  1017.8 hPa WNW 2.3 mph /  3.7 km/h 2.3 mph /  3.7 km/h 48 % 0 in /  0.0 mm
11:02 83.5 °F /  28.6 °C 60.4 °F /  15.8 °C 30.1 in /  1017.8 hPa NE 2.3 mph /  3.7 km/h 2.4 mph /  3.9 km/h 46 % 0 in /  0.0 mm
11:05 84.2 °F /  29.0 °C 60.6 °F /  15.9 °C 30.1 in /  1017.8 hPa NNE 3.5 mph /  5.6 km/h 3.5 mph /  5.6 km/h 45 % 0 in /  0.0 mm
11:10 84.4 °F /  29.1 °C 60.6 °F /  15.9 °C 30.1 in /  1017.8 hPa NNW 2.3 mph /  3.7 km/h 2.6 mph /  4.2 km/h 45 % 0 in /  0.0 mm
11:13 84.6 °F /  29.2 °C 61 °F /  16.1 °C 30.1 in /  1017.8 hPa North 3.5 mph /  5.6 km/h 3.5 mph /  5.6 km/h 45 % 0 in /  0.0 mm
11:15 84.7 °F /  29.3 °C 61 °F /  16.1 °C 30.1 in /  1017.8 hPa NE 3.5 mph /  5.6 km/h 3.5 mph /  5.6 km/h 45 % 0 in /  0.0 mm
11:19 83.7 °F /  28.7 °C 60.6 °F /  15.9 °C 30.1 in /  1017.8 hPa WSW 3.5 mph /  5.6 km/h 3.5 mph /  5.6 km/h 46 % 0 in /  0.0 mm
11:20 83.7 °F /  28.7 °C 60.1 °F /  15.6 °C 30.1 in /  1017.8 hPa SW 2.6 mph /  4.2 km/h 2.6 mph /  4.2 km/h 45 % 0 in /  0.0 mm
11:23 84.7 °F /  29.3 °C 60.4 °F /  15.8 °C 30.1 in /  1017.8 hPa NNE 1.2 mph /  1.9 km/h 1.2 mph /  1.9 km/h 44 % 0 in /  0.0 mm
11:25 85.1 °F /  29.5 °C 60.6 °F /  15.9 °C 30.1 in /  1017.8 hPa ESE 3.6 mph /  5.8 km/h 3.6 mph /  5.8 km/h 44 % 0 in /  0.0 mm
11:28 84.9 °F /  29.4 °C 59.4 °F /  15.2 °C 30.1 in /  1017.8 hPa NNE 3.5 mph /  5.6 km/h 3.5 mph /  5.6 km/h 42 % 0 in /  0.0 mm
11:30 84.6 °F /  29.2 °C 58.8 °F /  14.9 °C 30.1 in /  1017.8 hPa NNW 3.5 mph /  5.6 km/h 3.5 mph /  5.6 km/h 42 % 0 in /  0.0 mm
11:31 84.6 °F /  29.2 °C 58.8 °F /  14.9 °C 30.1 in /  1017.8 hPa West 3.5 mph /  5.6 km/h 3.5 mph /  5.6 km/h 42 % 0 in /  0.0 mm
11:36 85.5 °F /  29.7 °C 59.7 °F /  15.4 °C 30.1 in /  1017.8 hPa NNE 4.6 mph /  7.4 km/h 4.6 mph /  7.4 km/h 42 % 0 in /  0.0 mm
11:41 85.3 °F /  29.6 °C 59.5 °F /  15.3 °C 30 in /  1016.8 hPa East 5.8 mph /  9.3 km/h 5.8 mph /  9.3 km/h 42 % 0 in /  0.0 mm
11:46 86 °F /  30.0 °C 58.8 °F /  14.9 °C 30 in /  1016.8 hPa SE 4.6 mph /  7.4 km/h 4.6 mph /  7.4 km/h 40 % 0 in /  0.0 mm
11:51 85.8 °F /  29.9 °C 58.6 °F /  14.8 °C 30 in /  1016.8 hPa NNE 5.8 mph /  9.3 km/h 5.8 mph /  9.3 km/h 40 % 0 in /  0.0 mm
11:56 86 °F /  30.0 °C 58.8 °F /  14.9 °C 30 in /  1016.8 hPa NNE 9.2 mph /  14.8 km/h 9.2 mph /  14.8 km/h 40 % 0 in /  0.0 mm
12:01 86.5 °F /  30.3 °C 58.6 °F /  14.8 °C 30 in /  1016.8 hPa NE 5.8 mph /  9.3 km/h 5.8 mph /  9.3 km/h 39 % 0 in /  0.0 mm
12:06 86.7 °F /  30.4 °C 58.1 °F /  14.5 °C 30 in /  1016.8 hPa ESE 5.8 mph /  9.3 km/h 5.8 mph /  9.3 km/h 38 % 0 in /  0.0 mm
12:11 87.1 °F /  30.6 °C 58.5 °F /  14.7 °C 30 in /  1015.8 hPa ENE 5.8 mph /  9.3 km/h 5.8 mph /  9.3 km/h 38 % 0 in /  0.0 mm
12:16 87.3 °F /  30.7 °C 57.7 °F /  14.3 °C 30 in /  1015.8 hPa NE 5.8 mph /  9.3 km/h 5.8 mph /  9.3 km/h 37 % 0 in /  0.0 mm
12:21 88.2 °F /  31.2 °C 58.6 °F /  14.8 °C 30 in /  1015.8 hPa West 2.3 mph /  3.7 km/h 2.3 mph /  3.7 km/h 37 % 0 in /  0.0 mm
12:26 88.9 °F /  31.6 °C 56.8 °F /  13.8 °C 30 in /  1015.8 hPa East 6 mph /  9.7 km/h 6 mph /  9.7 km/h 34 % 0 in /  0.0 mm
12:31 88.3 °F /  31.3 °C 57.2 °F /  14.0 °C 30 in /  1015.8 hPa NE 4.6 mph /  7.4 km/h 4.6 mph /  7.4 km/h 35 % 0 in /  0.0 mm
12:36 89.2 °F /  31.8 °C 57.9 °F /  14.4 °C 30 in /  1015.8 hPa ESE 3.6 mph /  5.8 km/h 4.5 mph /  7.2 km/h 35 % 0 in /  0.0 mm
12:41 89.8 °F /  32.1 °C 56.8 °F /  13.8 °C 30 in /  1015.8 hPa SE 2.3 mph /  3.7 km/h 2.3 mph /  3.7 km/h 33 % 0 in /  0.0 mm
12:46 89.8 °F /  32.1 °C 55.9 °F /  13.3 °C 30 in /  1015.8 hPa ENE 6.4 mph /  10.3 km/h 6.4 mph /  10.3 km/h 32 % 0 in /  0.0 mm
12:51 91 °F /  32.8 °C 58.8 °F /  14.9 °C 30 in /  1015.8 hPa SW 4.6 mph /  7.4 km/h 4.6 mph /  7.4 km/h 34 % 0 in /  0.0 mm
12:56 92.7 °F /  33.7 °C 57.6 °F /  14.2 °C 30 in /  1015.8 hPa ESE 4 mph /  6.4 km/h 4 mph /  6.4 km/h 31 % 0 in /  0.0 mm
13:01 90.5 °F /  32.5 °C 55.8 °F /  13.2 °C 30 in /  1015.8 hPa East 9.2 mph /  14.8 km/h 9.2 mph /  14.8 km/h 31 % 0 in /  0.0 mm
13:06 91.9 °F /  33.3 °C 56.1 °F /  13.4 °C 30 in /  1015.8 hPa East 7.4 mph /  11.9 km/h 7.4 mph /  11.9 km/h 30 % 0 in /  0.0 mm
13:11 91 °F /  32.8 °C 55.2 °F /  12.9 °C 30 in /  1015.8 hPa ESE 3.5 mph /  5.6 km/h 3.5 mph /  5.6 km/h 30 % 0 in /  0.0 mm
13:16 91.9 °F /  33.3 °C 55 °F /  12.8 °C 30 in /  1015.8 hPa SSE 5.8 mph /  9.3 km/h 5.8 mph /  9.3 km/h 29 % 0 in /  0.0 mm
13:21 91.6 °F /  33.1 °C 55.8 °F /  13.2 °C 30 in /  1015.8 hPa ESE 5.9 mph /  9.5 km/h 5.9 mph /  9.5 km/h 30 % 0 in /  0.0 mm
13:26 92.3 °F /  33.5 °C 56.5 °F /  13.6 °C 30 in /  1015.8 hPa North 4.6 mph /  7.4 km/h 4.6 mph /  7.4 km/h 30 % 0 in /  0.0 mm
13:31 92.5 °F /  33.6 °C 54.7 °F /  12.6 °C 30 in /  1015.8 hPa NE 5.8 mph /  9.3 km/h 5.8 mph /  9.3 km/h 28 % 0 in /  0.0 mm
13:36 92.7 °F /  33.7 °C 55.8 °F /  13.2 °C 30 in /  1015.8 hPa ESE 5.8 mph /  9.3 km/h 5.8 mph /  9.3 km/h 29 % 0 in /  0.0 mm
13:41 92.8 °F /  33.8 °C 54.9 °F /  12.7 °C 30 in /  1015.8 hPa East 8.7 mph /  14.0 km/h 8.7 mph /  14.0 km/h 28 % 0 in /  0.0 mm
13:46 92.7 °F /  33.7 °C 54.9 °F /  12.7 °C 30 in /  1015.8 hPa NE 5.8 mph /  9.3 km/h 5.8 mph /  9.3 km/h 28 % 0 in /  0.0 mm
13:51 92.3 °F /  33.5 °C 53.4 °F /  11.9 °C 30 in /  1015.8 hPa ENE 8.1 mph /  13.0 km/h 8.1 mph /  13.0 km/h 27 % 0 in /  0.0 mm
13:56 93.6 °F /  34.2 °C 55.6 °F /  13.1 °C 30 in /  1014.8 hPa SSE 5.8 mph /  9.3 km/h 5.8 mph /  9.3 km/h 28 % 0 in /  0.0 mm
14:01 93.7 °F /  34.3 °C 55.8 °F /  13.2 °C 30 in /  1014.8 hPa SE 5.8 mph /  9.3 km/h 5.8 mph /  9.3 km/h 28 % 0 in /  0.0 mm
14:06 92.8 °F /  33.8 °C 56.8 °F /  13.8 °C 30 in /  1014.8 hPa ESE 10.2 mph /  16.4 km/h 10.2 mph /  16.4 km/h 30 % 0 in /  0.0 mm
14:11 91.9 °F /  33.3 °C 57.9 °F /  14.4 °C 30 in /  1015.8 hPa ESE 10.4 mph /  16.7 km/h 10.4 mph /  16.7 km/h 32 % 0 in /  0.0 mm
14:16 92.5 °F /  33.6 °C 58.3 °F /  14.6 °C 30 in /  1015.8 hPa SE 8.1 mph /  13.0 km/h 8.1 mph /  13.0 km/h 32 % 0 in /  0.0 mm
14:21 92.8 °F /  33.8 °C 58.6 °F /  14.8 °C 30 in /  1015.8 hPa ENE 11.5 mph /  18.5 km/h 11.5 mph /  18.5 km/h 32 % 0 in /  0.0 mm
14:26 91.2 °F /  32.9 °C 58.1 °F /  14.5 °C 30 in /  1015.8 hPa NE 10.4 mph /  16.7 km/h 10.4 mph /  16.7 km/h 33 % 0 in /  0.0 mm
14:31 90.9 °F /  32.7 °C 57.7 °F /  14.3 °C 30 in /  1015.8 hPa ESE 8.1 mph /  13.0 km/h 8.1 mph /  13.0 km/h 33 % 0 in /  0.0 mm
14:36 90.1 °F /  32.3 °C 57.2 °F /  14.0 °C 30 in /  1015.8 hPa South 6.9 mph /  11.1 km/h 6.9 mph /  11.1 km/h 33 % 0 in /  0.0 mm
14:41 89.6 °F /  32.0 °C 56.7 °F /  13.7 °C 30 in /  1015.8 hPa ESE 12.7 mph /  20.4 km/h 12.7 mph /  20.4 km/h 33 % 0 in /  0.0 mm
14:46 89.4 °F /  31.9 °C 57.4 °F /  14.1 °C 30 in /  1015.8 hPa SE 8.1 mph /  13.0 km/h 8.1 mph /  13.0 km/h 34 % 0 in /  0.0 mm
14:51 88.9 °F /  31.6 °C 56.8 °F /  13.8 °C 30 in /  1015.8 hPa SE 12.7 mph /  20.4 km/h 12.7 mph /  20.4 km/h 34 % 0 in /  0.0 mm
14:56 88.7 °F /  31.5 °C 56.7 °F /  13.7 °C 30 in /  1015.8 hPa East 9.2 mph /  14.8 km/h 9.2 mph /  14.8 km/h 34 % 0 in /  0.0 mm
15:01 88.7 °F /  31.5 °C 57.6 °F /  14.2 °C 30 in /  1015.8 hPa East 12.7 mph /  20.4 km/h 12.7 mph /  20.4 km/h 35 % 0 in /  0.0 mm
15:06 89.4 °F /  31.9 °C 58.3 °F /  14.6 °C 30 in /  1015.8 hPa East 7.6 mph /  12.2 km/h 7.6 mph /  12.2 km/h 35 % 0 in /  0.0 mm
15:11 89.1 °F /  31.7 °C 57.7 °F /  14.3 °C 30 in /  1015.8 hPa ESE 10.4 mph /  16.7 km/h 10.4 mph /  16.7 km/h 35 % 0 in /  0.0 mm
15:16 89.2 °F /  31.8 °C 57.9 °F /  14.4 °C 30 in /  1015.8 hPa ESE 8.1 mph /  13.0 km/h 8.1 mph /  13.0 km/h 35 % 0 in /  0.0 mm
15:21 89.1 °F /  31.7 °C 57.7 °F /  14.3 °C 30 in /  1015.8 hPa ESE 7.4 mph /  11.9 km/h 7.4 mph /  11.9 km/h 35 % 0 in /  0.0 mm
15:26 88.7 °F /  31.5 °C 58.3 °F /  14.6 °C 30 in /  1015.8 hPa East 9.2 mph /  14.8 km/h 9.2 mph /  14.8 km/h 36 % 0 in /  0.0 mm
15:31 88.7 °F /  31.5 °C 58.3 °F /  14.6 °C 30 in /  1015.8 hPa NE 9.2 mph /  14.8 km/h 9.2 mph /  14.8 km/h 36 % 0 in /  0.0 mm
15:36 87.8 °F /  31.0 °C 58.3 °F /  14.6 °C 30 in /  1015.8 hPa ESE 9.4 mph /  15.1 km/h 9.4 mph /  15.1 km/h 37 % 0 in /  0.0 mm
15:41 87.1 °F /  30.6 °C 59.2 °F /  15.1 °C 30 in /  1015.8 hPa ENE 9.8 mph /  15.8 km/h 9.8 mph /  15.8 km/h 39 % 0 in /  0.0 mm
15:46 86.7 °F /  30.4 °C 59.5 °F /  15.3 °C 30 in /  1015.8 hPa ESE 10 mph /  16.1 km/h 10 mph /  16.1 km/h 40 % 0 in /  0.0 mm
15:51 86.2 °F /  30.1 °C 59.7 °F /  15.4 °C 30 in /  1015.8 hPa East 10.4 mph /  16.7 km/h 10.4 mph /  16.7 km/h 41 % 0 in /  0.0 mm
15:56 86.2 °F /  30.1 °C 59.7 °F /  15.4 °C 30 in /  1015.8 hPa ESE 11.5 mph /  18.5 km/h 11.5 mph /  18.5 km/h 41 % 0 in /  0.0 mm
16:01 85.8 °F /  29.9 °C 60.1 °F /  15.6 °C 30 in /  1015.8 hPa East 8.1 mph /  13.0 km/h 8.1 mph /  13.0 km/h 42 % 0 in /  0.0 mm
16:06 85.1 °F /  29.5 °C 60.1 °F /  15.6 °C 30 in /  1015.8 hPa SE 11.5 mph /  18.5 km/h 11.5 mph /  18.5 km/h 43 % 0 in /  0.0 mm
16:11 85.3 °F /  29.6 °C 60.3 °F /  15.7 °C 30 in /  1015.8 hPa ESE 10.4 mph /  16.7 km/h 10.4 mph /  16.7 km/h 43 % 0 in /  0.0 mm
16:16 84.7 °F /  29.3 °C 59.7 °F /  15.4 °C 30 in /  1015.8 hPa East 9.2 mph /  14.8 km/h 9.2 mph /  14.8 km/h 43 % 0 in /  0.0 mm
16:21 84.9 °F /  29.4 °C 60.6 °F /  15.9 °C 30 in /  1015.8 hPa ESE 10.4 mph /  16.7 km/h 10.4 mph /  16.7 km/h 44 % 0 in /  0.0 mm
16:26 85.3 °F /  29.6 °C 61 °F /  16.1 °C 30 in /  1015.8 hPa East 8.1 mph /  13.0 km/h 8.1 mph /  13.0 km/h 44 % 0 in /  0.0 mm
16:31 85.1 °F /  29.5 °C 60.1 °F /  15.6 °C 30 in /  1015.8 hPa ENE 8.1 mph /  13.0 km/h 8.1 mph /  13.0 km/h 43 % 0 in /  0.0 mm
16:36 85.1 °F /  29.5 °C 60.1 °F /  15.6 °C 30 in /  1015.8 hPa SE 9.2 mph /  14.8 km/h 9.2 mph /  14.8 km/h 43 % 0 in /  0.0 mm
16:41 85.1 °F /  29.5 °C 60.1 °F /  15.6 °C 30 in /  1015.8 hPa SE 6.9 mph /  11.1 km/h 6.9 mph /  11.1 km/h 43 % 0 in /  0.0 mm
16:46 85.3 °F /  29.6 °C 59.5 °F /  15.3 °C 30 in /  1015.8 hPa ESE 8.1 mph /  13.0 km/h 8.1 mph /  13.0 km/h 42 % 0 in /  0.0 mm
16:51 85.1 °F /  29.5 °C 59.4 °F /  15.2 °C 30 in /  1015.8 hPa ESE 6.9 mph /  11.1 km/h 6.9 mph /  11.1 km/h 42 % 0 in /  0.0 mm
16:56 85.1 °F /  29.5 °C 58.1 °F /  14.5 °C 30 in /  1015.8 hPa ESE 9.2 mph /  14.8 km/h 9.2 mph /  14.8 km/h 40 % 0 in /  0.0 mm
17:01 84.9 °F /  29.4 °C 57.9 °F /  14.4 °C 30 in /  1015.8 hPa ESE 6.9 mph /  11.1 km/h 6.9 mph /  11.1 km/h 40 % 0 in /  0.0 mm
17:06 85.1 °F /  29.5 °C 58.1 °F /  14.5 °C 30 in /  1015.8 hPa East 5.4 mph /  8.7 km/h 5.4 mph /  8.7 km/h 40 % 0 in /  0.0 mm
17:11 84.7 °F /  29.3 °C 57.7 °F /  14.3 °C 30 in /  1014.8 hPa ENE 6 mph /  9.7 km/h 6 mph /  9.7 km/h 40 % 0 in /  0.0 mm
17:16 84.7 °F /  29.3 °C 57.7 °F /  14.3 °C 30 in /  1014.8 hPa East 5.9 mph /  9.5 km/h 5.9 mph /  9.5 km/h 40 % 0 in /  0.0 mm
17:21 84.7 °F /  29.3 °C 57 °F /  13.9 °C 30 in /  1014.8 hPa ESE 6.9 mph /  11.1 km/h 6.9 mph /  11.1 km/h 39 % 0 in /  0.0 mm
17:26 84.6 °F /  29.2 °C 57.6 °F /  14.2 °C 30 in /  1015.8 hPa ENE 6.9 mph /  11.1 km/h 6.9 mph /  11.1 km/h 40 % 0 in /  0.0 mm
17:31 84.6 °F /  29.2 °C 57.6 °F /  14.2 °C 30 in /  1015.8 hPa ENE 4.6 mph /  7.4 km/h 4.6 mph /  7.4 km/h 40 % 0 in /  0.0 mm
17:36 84.4 °F /  29.1 °C 56.7 °F /  13.7 °C 30 in /  1015.8 hPa ENE 9.2 mph /  14.8 km/h 9.2 mph /  14.8 km/h 39 % 0 in /  0.0 mm
17:41 84 °F /  28.9 °C 57.7 °F /  14.3 °C 30 in /  1014.8 hPa NE 5.8 mph /  9.3 km/h 5.8 mph /  9.3 km/h 41 % 0 in /  0.0 mm
17:46 84 °F /  28.9 °C 58.5 °F /  14.7 °C 30 in /  1014.8 hPa ESE 4.6 mph /  7.4 km/h 4.6 mph /  7.4 km/h 42 % 0 in /  0.0 mm
17:51 84 °F /  28.9 °C 59.2 °F /  15.1 °C 30 in /  1014.8 hPa ESE 6.9 mph /  11.1 km/h 6.9 mph /  11.1 km/h 43 % 0 in /  0.0 mm
17:56 83.8 °F /  28.8 °C 59.5 °F /  15.3 °C 30 in /  1015.8 hPa ESE 4.6 mph /  7.4 km/h 4.6 mph /  7.4 km/h 44 % 0 in /  0.0 mm
18:01 84 °F /  28.9 °C 59.7 °F /  15.4 °C 30 in /  1015.8 hPa NNE 5.8 mph /  9.3 km/h 5.8 mph /  9.3 km/h 44 % 0 in /  0.0 mm
18:06 83.5 °F /  28.6 °C 59.9 °F /  15.5 °C 30 in /  1015.8 hPa East 8.1 mph /  13.0 km/h 8.1 mph /  13.0 km/h 45 % 0 in /  0.0 mm
18:11 83.5 °F /  28.6 °C 59.9 °F /  15.5 °C 30 in /  1015.8 hPa SSE 7.4 mph /  11.9 km/h 7.4 mph /  11.9 km/h 45 % 0 in /  0.0 mm
18:16 84 °F /  28.9 °C 59.7 °F /  15.4 °C 30 in /  1015.8 hPa South 5.8 mph /  9.3 km/h 5.8 mph /  9.3 km/h 44 % 0 in /  0.0 mm
18:21 84.4 °F /  29.1 °C 59.4 °F /  15.2 °C 30 in /  1015.8 hPa South 3.5 mph /  5.6 km/h 3.5 mph /  5.6 km/h 43 % 0 in /  0.0 mm
18:26 84.4 °F /  29.1 °C 59.4 °F /  15.2 °C 30 in /  1015.8 hPa SW 4.6 mph /  7.4 km/h 4.6 mph /  7.4 km/h 43 % 0 in /  0.0 mm
18:31 84 °F /  28.9 °C 59.7 °F /  15.4 °C 30 in /  1015.8 hPa WSW 8.1 mph /  13.0 km/h 8.1 mph /  13.0 km/h 44 % 0 in /  0.0 mm
18:36 83.7 °F /  28.7 °C 60.1 °F /  15.6 °C 30 in /  1015.8 hPa South 8.1 mph /  13.0 km/h 8.1 mph /  13.0 km/h 45 % 0 in /  0.0 mm
18:41 83.1 °F /  28.4 °C 59.5 °F /  15.3 °C 30 in /  1015.8 hPa SW 9.2 mph /  14.8 km/h 9.2 mph /  14.8 km/h 45 % 0 in /  0.0 mm
18:46 82.9 °F /  28.3 °C 60.1 °F /  15.6 °C 30 in /  1015.8 hPa SW 6.9 mph /  11.1 km/h 6.9 mph /  11.1 km/h 46 % 0 in /  0.0 mm
18:51 82.9 °F /  28.3 °C 59.4 °F /  15.2 °C 30 in /  1015.8 hPa WSW 4.6 mph /  7.4 km/h 4.6 mph /  7.4 km/h 45 % 0 in /  0.0 mm
18:56 82.8 °F /  28.2 °C 59.4 °F /  15.2 °C 30 in /  1015.8 hPa SW 6.4 mph /  10.3 km/h 6.4 mph /  10.3 km/h 45 % 0 in /  0.0 mm
19:01 82.6 °F /  28.1 °C 58.5 °F /  14.7 °C 30 in /  1015.8 hPa SSW 9.2 mph /  14.8 km/h 9.2 mph /  14.8 km/h 44 % 0 in /  0.0 mm
19:06 82.8 °F /  28.2 °C 58.6 °F /  14.8 °C 30 in /  1015.8 hPa SW 6.9 mph /  11.1 km/h 6.9 mph /  11.1 km/h 44 % 0 in /  0.0 mm
19:11 82.9 °F /  28.3 °C 58.1 °F /  14.5 °C 30 in /  1016.8 hPa WSW 4.6 mph /  7.4 km/h 4.6 mph /  7.4 km/h 43 % 0 in /  0.0 mm
19:15 75.6 °F /  24.2 °C 63.9 °F /  17.7 °C 30 in /  1016.8 hPa NNE 3 mph /  4.8 km/h 4 mph /  6.4 km/h 67 % 0 in /  0.0 mm
19:16 83.5 °F /  28.6 °C 57.9 °F /  14.4 °C 30 in /  1016.8 hPa SW 3.5 mph /  5.6 km/h 3.5 mph /  5.6 km/h 42 % 0 in /  0.0 mm
19:21 83.7 °F /  28.7 °C 57.6 °F /  14.2 °C 30 in /  1016.8 hPa South 5.8 mph /  9.3 km/h 5.8 mph /  9.3 km/h 41 % 0 in /  0.0 mm
19:25 75.2 °F /  24.0 °C 63.5 °F /  17.5 °C 30 in /  1016.8 hPa NNE 1 mph /  1.6 km/h 3 mph /  4.8 km/h 67 % 0 in /  0.0 mm
19:26 83.8 °F /  28.8 °C 57.6 °F /  14.2 °C 30 in /  1015.8 hPa SW 5.8 mph /  9.3 km/h 5.8 mph /  9.3 km/h 41 % 0 in /  0.0 mm
19:31 83.5 °F /  28.6 °C 56.7 °F /  13.7 °C 30 in /  1015.8 hPa SSW 5.8 mph /  9.3 km/h 5.8 mph /  9.3 km/h 40 % 0 in /  0.0 mm
19:35 75 °F /  23.9 °C 64.2 °F /  17.9 °C 30 in /  1016.8 hPa NE 1 mph /  1.6 km/h 2 mph /  3.2 km/h 69 % 0 in /  0.0 mm
19:36 83.3 °F /  28.5 °C 56.5 °F /  13.6 °C 30 in /  1015.8 hPa SSW 4.6 mph /  7.4 km/h 4.6 mph /  7.4 km/h 40 % 0 in /  0.0 mm
19:41 83.3 °F /  28.5 °C 57 °F /  13.9 °C 30 in /  1014.8 hPa SW 2.9 mph /  4.7 km/h 2.9 mph /  4.7 km/h 41 % 0 in /  0.0 mm
19:45 74.8 °F /  23.8 °C 64.4 °F /  18.0 °C 30 in /  1015.8 hPa East 1 mph /  1.6 km/h 2 mph /  3.2 km/h 70 % 0 in /  0.0 mm
19:46 82.9 °F /  28.3 °C 56.8 °F /  13.8 °C 30 in /  1014.8 hPa SW 3.5 mph /  5.6 km/h 3.5 mph /  5.6 km/h 41 % 0 in /  0.0 mm
19:51 82.9 °F /  28.3 °C 56.8 °F /  13.8 °C 30 in /  1014.8 hPa SSW 2.3 mph /  3.7 km/h 2.3 mph /  3.7 km/h 41 % 0 in /  0.0 mm
19:55 74.5 °F /  23.6 °C 64 °F /  17.8 °C 30 in /  1015.8 hPa Calm   1 mph /  1.6 km/h 70 % 0 in /  0.0 mm
19:56 82.8 °F /  28.2 °C 56.7 °F /  13.7 °C 30 in /  1015.8 hPa South 1.4 mph /  2.3 km/h 1.4 mph /  2.3 km/h 41 % 0 in /  0.0 mm
20:01 82.6 °F /  28.1 °C 56.5 °F /  13.6 °C 30 in /  1015.8 hPa Calm     41 % 0 in /  0.0 mm
20:05 74.1 °F /  23.4 °C 63.7 °F /  17.6 °C 30 in /  1016.8 hPa Calm   1 mph /  1.6 km/h 70 % 0 in /  0.0 mm
20:06 82.6 °F /  28.1 °C 56.5 °F /  13.6 °C 30 in /  1015.8 hPa ENE 2.3 mph /  3.7 km/h 2.3 mph /  3.7 km/h 41 % 0 in /  0.0 mm
20:11 82.4 °F /  28.0 °C 56.3 °F /  13.5 °C 30 in /  1015.8 hPa ENE 2.3 mph /  3.7 km/h 2.3 mph /  3.7 km/h 41 % 0 in /  0.0 mm
20:15 73.9 °F /  23.3 °C 63.5 °F /  17.5 °C 30 in /  1016.8 hPa NW 2 mph /  3.2 km/h 3 mph /  4.8 km/h 70 % 0 in /  0.0 mm
20:16 82.2 °F /  27.9 °C 56.1 °F /  13.4 °C 30 in /  1015.8 hPa ENE 4.7 mph /  7.6 km/h 4.7 mph /  7.6 km/h 41 % 0 in /  0.0 mm
20:21 82 °F /  27.8 °C 57.4 °F /  14.1 °C 30 in /  1015.8 hPa ESE 5.4 mph /  8.7 km/h 5.4 mph /  8.7 km/h 43 % 0 in /  0.0 mm
20:25 73.8 °F /  23.2 °C 63.9 °F /  17.7 °C 30 in /  1016.8 hPa NNE 3 mph /  4.8 km/h 3 mph /  4.8 km/h 71 % 0 in /  0.0 mm
20:26 81.7 °F /  27.6 °C 58.8 °F /  14.9 °C 30 in /  1014.8 hPa ENE 4.9 mph /  7.9 km/h 4.9 mph /  7.9 km/h 46 % 0 in /  0.0 mm
20:31 81.1 °F /  27.3 °C 60.3 °F /  15.7 °C 30 in /  1014.8 hPa ESE 5.8 mph /  9.3 km/h 5.8 mph /  9.3 km/h 49 % 0 in /  0.0 mm
20:35 73.4 °F /  23.0 °C 63.3 °F /  17.4 °C 30 in /  1015.8 hPa NNE 2 mph /  3.2 km/h 4 mph /  6.4 km/h 71 % 0 in /  0.0 mm
20:36 80.8 °F /  27.1 °C 61 °F /  16.1 °C 30 in /  1014.8 hPa ENE 4.6 mph /  7.4 km/h 4.6 mph /  7.4 km/h 51 % 0 in /  0.0 mm
20:41 80.8 °F /  27.1 °C 61 °F /  16.1 °C 30 in /  1015.8 hPa North 4.7 mph /  7.6 km/h 4.7 mph /  7.6 km/h 51 % 0 in /  0.0 mm
20:42 80.8 °F /  27.1 °C 61 °F /  16.1 °C 30 in /  1015.8 hPa ENE 4.6 mph /  7.4 km/h 4.6 mph /  7.4 km/h 51 % 0 in /  0.0 mm
20:45 73.2 °F /  22.9 °C 63.1 °F /  17.3 °C 30 in /  1015.8 hPa NNE 1 mph /  1.6 km/h 2 mph /  3.2 km/h 71 % 0 in /  0.0 mm
20:47 80.8 °F /  27.1 °C 61.5 °F /  16.4 °C 30 in /  1015.8 hPa SE 4.3 mph /  6.9 km/h 4.3 mph /  6.9 km/h 52 % 0 in /  0.0 mm
20:52 80.4 °F /  26.9 °C 62.8 °F /  17.1 °C 30 in /  1015.8 hPa East 5.8 mph /  9.3 km/h 5.8 mph /  9.3 km/h 55 % 0 in /  0.0 mm
20:55 72.9 °F /  22.7 °C 63.3 °F /  17.4 °C 30 in /  1015.8 hPa Calm   2 mph /  3.2 km/h 72 % 0 in /  0.0 mm
20:57 80.2 °F /  26.8 °C 62.1 °F /  16.7 °C 30 in /  1015.8 hPa ESE 2.3 mph /  3.7 km/h 2.3 mph /  3.7 km/h 54 % 0 in /  0.0 mm
21:02 79.9 °F /  26.6 °C 62.8 °F /  17.1 °C 30 in /  1015.8 hPa East 3.5 mph /  5.6 km/h 3.5 mph /  5.6 km/h 56 % 0 in /  0.0 mm
21:07 79.7 °F /  26.5 °C 62.1 °F /  16.7 °C 30 in /  1015.8 hPa East 3.1 mph /  5.0 km/h 3.1 mph /  5.0 km/h 55 % 0 in /  0.0 mm
21:12 79.7 °F /  26.5 °C 63.1 °F /  17.3 °C 30 in /  1015.8 hPa ESE 3.5 mph /  5.6 km/h 3.5 mph /  5.6 km/h 57 % 0 in /  0.0 mm
21:15 72.5 °F /  22.5 °C 63 °F /  17.2 °C 30 in /  1015.8 hPa Calm   1 mph /  1.6 km/h 72 % 0 in /  0.0 mm
21:17 79.5 °F /  26.4 °C 63 °F /  17.2 °C 30 in /  1015.8 hPa ESE 3.5 mph /  5.6 km/h 3.5 mph /  5.6 km/h 57 % 0 in /  0.0 mm
21:22 79.3 °F /  26.3 °C 62.2 °F /  16.8 °C 30 in /  1015.8 hPa ENE 2.6 mph /  4.2 km/h 2.6 mph /  4.2 km/h 56 % 0 in /  0.0 mm
21:25 72.1 °F /  22.3 °C 62.6 °F /  17.0 °C 30 in /  1015.8 hPa Calm     72 % 0 in /  0.0 mm
21:27 79.2 °F /  26.2 °C 62.6 °F /  17.0 °C 30 in /  1015.8 hPa NNE 2.3 mph /  3.7 km/h 2.3 mph /  3.7 km/h 57 % 0 in /  0.0 mm
21:32 79.2 °F /  26.2 °C 62.6 °F /  17.0 °C 30 in /  1015.8 hPa ENE 1.2 mph /  1.9 km/h 1.2 mph /  1.9 km/h 57 % 0 in /  0.0 mm
21:37 79 °F /  26.1 °C 62.4 °F /  16.9 °C 30 in /  1015.8 hPa ENE 2.3 mph /  3.7 km/h   57 % 0 in /  0.0 mm
21:38 79 °F /  26.1 °C 62.4 °F /  16.9 °C 30 in /  1015.8 hPa East 2.3 mph /  3.7 km/h 2.3 mph /  3.7 km/h 57 % 0 in /  0.0 mm
21:43 79 °F /  26.1 °C 62.4 °F /  16.9 °C 30 in /  1014.8 hPa NNE 3.5 mph /  5.6 km/h 3.5 mph /  5.6 km/h 57 % 0 in /  0.0 mm
21:45 72 °F /  22.2 °C 62.8 °F /  17.1 °C 30 in /  1014.8 hPa Calm   2 mph /  3.2 km/h 73 % 0 in /  0.0 mm
21:48 78.8 °F /  26.0 °C 62.2 °F /  16.8 °C 30 in /  1014.8 hPa ESE 3.5 mph /  5.6 km/h 3.5 mph /  5.6 km/h 57 % 0 in /  0.0 mm
21:53 78.8 °F /  26.0 °C 62.8 °F /  17.1 °C 30 in /  1014.8 hPa ENE 2.4 mph /  3.9 km/h 2.4 mph /  3.9 km/h 58 % 0 in /  0.0 mm
21:55 72 °F /  22.2 °C 62.8 °F /  17.1 °C 30 in /  1014.8 hPa NNE 1 mph /  1.6 km/h 2 mph /  3.2 km/h 73 % 0 in /  0.0 mm
21:58 78.6 °F /  25.9 °C 62.6 °F /  17.0 °C 30 in /  1015.8 hPa SSE 2.3 mph /  3.7 km/h 2.3 mph /  3.7 km/h 58 % 0 in /  0.0 mm
22:03 78.4 °F /  25.8 °C 63 °F /  17.2 °C 30 in /  1015.8 hPa ESE 3.5 mph /  5.6 km/h 3.5 mph /  5.6 km/h 59 % 0 in /  0.0 mm
22:05 71.8 °F /  22.1 °C 62.8 °F /  17.1 °C 30 in /  1015.8 hPa NNW 2 mph /  3.2 km/h 2 mph /  3.2 km/h 73 % 0 in /  0.0 mm
22:08 78.3 °F /  25.7 °C 63.7 °F /  17.6 °C 30 in /  1015.8 hPa ESE 5.4 mph /  8.7 km/h 5.4 mph /  8.7 km/h 61 % 0 in /  0.0 mm
22:13 78.1 °F /  25.6 °C 63.1 °F /  17.3 °C 30 in /  1015.8 hPa East 3.3 mph /  5.3 km/h 3.3 mph /  5.3 km/h 60 % 0 in /  0.0 mm
22:15 71.4 °F /  21.9 °C 62.8 °F /  17.1 °C 30 in /  1015.8 hPa West 1 mph /  1.6 km/h 2 mph /  3.2 km/h 74 % 0 in /  0.0 mm
22:18 77.7 °F /  25.4 °C 62.8 °F /  17.1 °C 30 in /  1015.8 hPa ENE 3.6 mph /  5.8 km/h 3.6 mph /  5.8 km/h 60 % 0 in /  0.0 mm
22:23 77.7 °F /  25.4 °C 63.7 °F /  17.6 °C 30 in /  1015.8 hPa ESE 3.5 mph /  5.6 km/h 3.5 mph /  5.6 km/h 62 % 0 in /  0.0 mm
22:25 71.4 °F /  21.9 °C 63.1 °F /  17.3 °C 30 in /  1015.8 hPa Calm   1 mph /  1.6 km/h 75 % 0 in /  0.0 mm
22:28 77.5 °F /  25.3 °C 63.5 °F /  17.5 °C 30 in /  1015.8 hPa ENE 3.5 mph /  5.6 km/h 3.5 mph /  5.6 km/h 62 % 0 in /  0.0 mm
22:33 77.4 °F /  25.2 °C 63.3 °F /  17.4 °C 30 in /  1015.8 hPa East 2.3 mph /  3.7 km/h 2.3 mph /  3.7 km/h 62 % 0 in /  0.0 mm
22:35 71.6 °F /  22.0 °C 63 °F /  17.2 °C 30 in /  1015.8 hPa NW 2 mph /  3.2 km/h 2 mph /  3.2 km/h 74 % 0 in /  0.0 mm
22:38 77.2 °F /  25.1 °C 63.1 °F /  17.3 °C 30 in /  1015.8 hPa ENE 2.3 mph /  3.7 km/h 2.3 mph /  3.7 km/h 62 % 0 in /  0.0 mm
22:43 77 °F /  25.0 °C 63.3 °F /  17.4 °C 30 in /  1015.8 hPa ESE 3.5 mph /  5.6 km/h 3.5 mph /  5.6 km/h 63 % 0 in /  0.0 mm
22:45 71.2 °F /  21.8 °C 63 °F /  17.2 °C 30 in /  1015.8 hPa Calm   2 mph /  3.2 km/h 75 % 0 in /  0.0 mm
22:48 77.2 °F /  25.1 °C 63.7 °F /  17.6 °C 30 in /  1015.8 hPa NNE 2.3 mph /  3.7 km/h 2.4 mph /  3.9 km/h 63 % 0 in /  0.0 mm
22:53 77.2 °F /  25.1 °C 63.1 °F /  17.3 °C 30 in /  1015.8 hPa NNE 3.5 mph /  5.6 km/h 3.5 mph /  5.6 km/h 62 % 0 in /  0.0 mm
22:55 70.9 °F /  21.6 °C 62.6 °F /  17.0 °C 30 in /  1015.8 hPa SE 1 mph /  1.6 km/h 2 mph /  3.2 km/h 75 % 0 in /  0.0 mm
22:58 77.2 °F /  25.1 °C 63.7 °F /  17.6 °C 30 in /  1015.8 hPa NNE 3.5 mph /  5.6 km/h 3.5 mph /  5.6 km/h 63 % 0 in /  0.0 mm
22:59 77.2 °F /  25.1 °C 63.1 °F /  17.3 °C 30 in /  1015.8 hPa NNE 3.5 mph /  5.6 km/h 3.5 mph /  5.6 km/h 62 % 0 in /  0.0 mm
23:04 77.2 °F /  25.1 °C 63.7 °F /  17.6 °C 30 in /  1015.8 hPa NE 2.3 mph /  3.7 km/h 2.3 mph /  3.7 km/h 63 % 0 in /  0.0 mm
23:05 70.9 °F /  21.6 °C 62.6 °F /  17.0 °C 30 in /  1015.8 hPa Calm   1 mph /  1.6 km/h 75 % 0 in /  0.0 mm
23:09 77 °F /  25.0 °C 63.3 °F /  17.4 °C 30 in /  1015.8 hPa NNW 1.2 mph /  1.9 km/h 1.2 mph /  1.9 km/h 63 % 0 in /  0.0 mm
23:14 77 °F /  25.0 °C 63.3 °F /  17.4 °C 30 in /  1015.8 hPa Calm     63 % 0 in /  0.0 mm
23:15 70.9 °F /  21.6 °C 62.6 °F /  17.0 °C 30 in /  1015.8 hPa Calm   1 mph /  1.6 km/h 75 % 0 in /  0.0 mm
23:19 76.8 °F /  24.9 °C 63.7 °F /  17.6 °C 30 in /  1015.8 hPa NE 3.5 mph /  5.6 km/h 3.5 mph /  5.6 km/h 64 % 0 in /  0.0 mm
23:24 76.6 °F /  24.8 °C 63.5 °F /  17.5 °C 30 in /  1015.8 hPa NE 4.6 mph /  7.4 km/h 4.6 mph /  7.4 km/h 64 % 0 in /  0.0 mm
23:25 71.1 °F /  21.7 °C 62.1 °F /  16.7 °C 30 in /  1015.8 hPa NNW 2 mph /  3.2 km/h 3 mph /  4.8 km/h 73 % 0 in /  0.0 mm
23:29 76.5 °F /  24.7 °C 63.3 °F /  17.4 °C 30 in /  1015.8 hPa ENE 3.5 mph /  5.6 km/h 3.5 mph /  5.6 km/h 64 % 0 in /  0.0 mm
23:34 76.3 °F /  24.6 °C 63.1 °F /  17.3 °C 30 in /  1015.8 hPa NE 2.3 mph /  3.7 km/h 2.3 mph /  3.7 km/h 64 % 0 in /  0.0 mm
23:35 71.1 °F /  21.7 °C 61.5 °F /  16.4 °C 30 in /  1015.8 hPa NNE 1 mph /  1.6 km/h 2 mph /  3.2 km/h 72 % 0 in /  0.0 mm
23:39 76.1 °F /  24.5 °C 63.5 °F /  17.5 °C 30 in /  1015.8 hPa NNE 5.8 mph /  9.3 km/h 5.8 mph /  9.3 km/h 65 % 0 in /  0.0 mm
23:44 75.9 °F /  24.4 °C 63.7 °F /  17.6 °C 30 in /  1015.8 hPa NNE 5.8 mph /  9.3 km/h 5.8 mph /  9.3 km/h 66 % 0 in /  0.0 mm
23:45 71.2 °F /  21.8 °C 60.4 °F /  15.8 °C 30 in /  1015.8 hPa ENE 2 mph /  3.2 km/h 2 mph /  3.2 km/h 69 % 0 in /  0.0 mm
23:49 75.9 °F /  24.4 °C 63.7 °F /  17.6 °C 30 in /  1015.8 hPa NNE 3.5 mph /  5.6 km/h 3.5 mph /  5.6 km/h 66 % 0 in /  0.0 mm
23:54 75.7 °F /  24.3 °C 63.7 °F /  17.6 °C 30 in /  1015.8 hPa NNE 1.4 mph /  2.3 km/h   66 % 0 in /  0.0 mm
23:55 70.7 °F /  21.5 °C 59.5 °F /  15.3 °C 30 in /  1015.8 hPa NE 1 mph /  1.6 km/h 3 mph /  4.8 km/h 68 % 0 in /  0.0 mm
23:59 75.7 °F /  24.3 °C 63.7 °F /  17.6 °C 30 in /  1016.8 hPa ENE 2.3 mph /  3.7 km/h 2.3 mph /  3.7 km/h 66 % 0 in /  0.0 mm
Meteo Sesrovires
Elogis d' Weather Underground - 3.75 mb

Guio original per  Jim McMurry - jmcmurry@mwt.net Adaptat per a la plantilla per  Wim van der Kuil - Leuven-Template.eu

Trobareu la nostra informacio del temps tambe a:

Weather Underground

AWEKAS